Time;durP1;ratioP1;P1;durP2;ratioP2;P2;SDS_P1;SDS_P2;PMS_P1;PMS_P2;Temp;Humidity;BMP_temperature;BMP_pressure;BME280_temperature;BME280_humidity;BME280_pressure;Samples;Min_cycle;Max_cycle;Signal;HPM_P1;HPM_P2
2022/03/20 00:00:01;;;;;;;4.97;0.90;;;6.80;95.10;;;;;;5048209;28;20033;-62
2022/03/20 00:02:30;;;;;;;2.53;0.60;;;6.80;95.70;;;;;;5048477;28;20087;-61
2022/03/20 00:04:56;;;;;;;2.45;0.75;;;6.70;96.20;;;;;;5039494;28;20497;-60
2022/03/20 00:07:21;;;;;;;3.15;0.68;;;6.60;96.60;;;;;;5048665;28;20040;-60
2022/03/20 00:09:53;;;;;;;5.25;1.20;;;6.70;96.80;;;;;;5050314;28;20082;-62
2022/03/20 00:12:19;;;;;;;2.22;1.38;;;6.60;97.30;;;;;;5052555;28;20550;-60
2022/03/20 00:14:45;;;;;;;2.00;0.95;;;6.60;97.60;;;;;;5049867;28;20037;-61
2022/03/20 00:17:12;;;;;;;4.22;1.30;;;6.60;97.90;;;;;;5052415;28;20029;-60
2022/03/20 00:19:39;;;;;;;2.08;0.70;;;6.60;98.50;;;;;;5052336;28;20742;-60
2022/03/20 00:22:05;;;;;;;2.58;1.00;;;6.60;98.60;;;;;;5051791;28;20094;-60
2022/03/20 00:24:31;;;;;;;4.18;1.23;;;6.50;99.10;;;;;;5052263;28;20041;-60
2022/03/20 00:26:57;;;;;;;1.55;0.98;;;6.50;99.60;;;;;;5052036;28;20132;-61
2022/03/20 00:29:26;;;;;;;2.72;1.20;;;6.40;99.90;;;;;;5052416;28;20586;-62
2022/03/20 00:31:52;;;;;;;2.28;1.05;;;6.40;99.90;;;;;;5047417;28;20124;-61
2022/03/20 00:34:18;;;;;;;4.35;1.17;;;6.40;99.90;;;;;;5050652;28;20029;-60
2022/03/20 00:36:43;;;;;;;6.50;2.55;;;6.40;99.90;;;;;;5051804;28;20028;-60
2022/03/20 00:39:09;;;;;;;2.22;1.58;;;6.40;99.90;;;;;;5052035;28;20033;-61
2022/03/20 00:41:35;;;;;;;6.97;1.50;;;6.30;99.90;;;;;;5051895;28;20041;-60
2022/03/20 00:44:01;;;;;;;3.00;1.13;;;6.30;99.90;;;;;;5051446;28;20031;-61
2022/03/20 00:46:27;;;;;;;5.32;1.85;;;6.30;99.90;;;;;;5051779;28;20465;-60
2022/03/20 00:48:53;;;;;;;3.53;1.52;;;6.20;99.90;;;;;;5051743;28;20029;-60
2022/03/20 00:51:19;;;;;;;4.88;1.65;;;6.20;99.90;;;;;;5051756;28;20056;-61
2022/03/20 00:53:45;;;;;;;5.07;1.58;;;6.20;99.90;;;;;;5051153;28;20481;-62
2022/03/20 00:56:12;;;;;;;6.25;2.30;;;6.20;99.90;;;;;;5051730;28;20105;-62
2022/03/20 00:58:38;;;;;;;7.70;1.48;;;6.20;99.90;;;;;;5050414;28;20797;-60
2022/03/20 01:01:04;;;;;;;10.25;1.75;;;6.10;99.90;;;;;;5049406;28;20044;-60
2022/03/20 01:03:30;;;;;;;3.83;1.55;;;6.10;99.90;;;;;;5051027;28;20025;-60
2022/03/20 01:05:55;;;;;;;4.03;1.42;;;6.10;99.90;;;;;;5051265;28;20041;-60
2022/03/20 01:08:21;;;;;;;3.38;2.05;;;6.10;99.90;;;;;;5051812;28;20025;-60
2022/03/20 01:10:47;;;;;;;5.05;2.08;;;6.10;99.90;;;;;;5050717;28;20104;-60
2022/03/20 01:13:12;;;;;;;5.55;2.00;;;6.00;99.90;;;;;;5050587;28;20025;-60
2022/03/20 01:15:38;;;;;;;7.72;2.17;;;6.00;99.90;;;;;;5051513;28;20072;-61
2022/03/20 01:18:03;;;;;;;4.22;1.95;;;6.00;99.90;;;;;;5050919;28;20392;-60
2022/03/20 01:20:29;;;;;;;4.35;1.95;;;6.00;99.90;;;;;;5050649;28;20045;-61
2022/03/20 01:22:55;;;;;;;8.27;2.38;;;6.00;99.90;;;;;;5050870;28;20036;-60
2022/03/20 01:25:20;;;;;;;6.28;2.40;;;5.90;99.90;;;;;;5051393;28;20493;-62
2022/03/20 01:27:46;;;;;;;5.00;2.05;;;5.80;99.90;;;;;;5050600;28;20029;-60
2022/03/20 01:30:12;;;;;;;9.57;3.22;;;5.90;99.90;;;;;;5050844;28;20028;-61
2022/03/20 01:32:37;;;;;;;7.78;2.65;;;5.80;99.90;;;;;;5051238;28;20049;-60
2022/03/20 01:35:03;;;;;;;7.80;3.38;;;5.80;99.90;;;;;;5049151;28;20032;-61
2022/03/20 01:37:29;;;;;;;7.05;2.80;;;5.80;99.90;;;;;;5050978;28;20018;-61
2022/03/20 01:39:55;;;;;;;7.00;3.05;;;5.80;99.90;;;;;;5049352;28;20032;-61
2022/03/20 01:42:21;;;;;;;6.80;3.35;;;5.80;99.90;;;;;;5054190;28;20040;-61
2022/03/20 01:44:47;;;;;;;6.05;2.83;;;5.80;99.90;;;;;;5046506;28;20136;-62
2022/03/20 01:47:13;;;;;;;10.77;3.50;;;5.80;99.90;;;;;;5049761;28;20488;-61
2022/03/20 01:49:39;;;;;;;7.72;3.58;;;5.70;99.90;;;;;;5050744;28;20036;-61
2022/03/20 01:52:11;;;;;;;8.00;3.20;;;5.80;99.90;;;;;;5050189;28;20029;-61
2022/03/20 01:54:40;;;;;;;6.28;2.97;;;5.70;99.90;;;;;;5049897;28;20036;-62
2022/03/20 01:57:07;;;;;;;6.75;3.13;;;5.60;99.90;;;;;;5050142;28;20667;-61
2022/03/20 01:59:34;;;;;;;7.75;2.92;;;5.60;99.90;;;;;;5050541;28;20033;-61
2022/03/20 02:02:02;;;;;;;7.30;3.38;;;5.60;99.90;;;;;;5048496;28;20045;-61
2022/03/20 02:04:27;;;;;;;8.65;4.25;;;5.60;99.90;;;;;;5050357;28;20377;-60
2022/03/20 02:06:54;;;;;;;5.43;3.00;;;5.60;99.90;;;;;;5048051;28;20056;-62
2022/03/20 02:09:19;;;;;;;9.98;3.65;;;5.60;99.90;;;;;;5048872;28;20455;-62
2022/03/20 02:11:47;;;;;;;5.50;2.83;;;5.60;99.90;;;;;;5049748;28;20035;-62
2022/03/20 02:14:13;;;;;;;8.27;3.13;;;5.60;99.90;;;;;;5050041;28;20036;-61
2022/03/20 02:16:39;;;;;;;5.82;2.70;;;5.50;99.90;;;;;;5050266;28;20032;-62
2022/03/20 02:19:08;;;;;;;7.43;4.07;;;5.50;99.90;;;;;;5049862;28;20033;-62
2022/03/20 02:21:41;;;;;;;10.63;4.18;;;5.50;99.90;;;;;;5049861;28;20096;-62
2022/03/20 02:24:32;;;;;;;8.05;3.17;;;5.50;99.90;;;;;;5049787;28;20854;-61
2022/03/20 02:27:12;;;;;;;6.93;3.53;;;5.40;99.90;;;;;;5047460;28;20124;-61
2022/03/20 02:29:39;;;;;;;9.13;3.45;;;5.40;99.90;;;;;;5050191;28;20462;-61
2022/03/20 02:32:06;;;;;;;5.95;2.42;;;5.40;99.90;;;;;;5048992;28;20061;-61
2022/03/20 02:34:32;;;;;;;13.35;3.25;;;5.40;99.90;;;;;;5048378;28;20632;-64
2022/03/20 02:36:59;;;;;;;8.15;3.60;;;5.40;99.90;;;;;;5049857;28;20181;-63
2022/03/20 02:39:25;;;;;;;7.93;3.20;;;5.30;99.90;;;;;;5049977;28;20124;-61
2022/03/20 02:41:51;;;;;;;6.43;3.00;;;5.30;99.90;;;;;;5051155;28;20454;-61
2022/03/20 02:44:17;;;;;;;8.00;3.20;;;5.30;99.90;;;;;;5049702;28;20044;-62
2022/03/20 02:46:43;;;;;;;7.53;3.17;;;5.20;99.90;;;;;;5049173;28;20036;-64
2022/03/20 02:49:13;;;;;;;7.28;2.90;;;5.30;99.90;;;;;;5049889;28;20040;-61
2022/03/20 02:51:39;;;;;;;7.30;2.65;;;5.20;99.90;;;;;;5049228;28;20041;-62
2022/03/20 02:54:06;;;;;;;4.05;2.40;;;5.20;99.90;;;;;;5048971;28;20087;-62
2022/03/20 02:56:33;;;;;;;6.70;2.85;;;5.20;99.90;;;;;;5049354;28;20043;-62
2022/03/20 02:59:00;;;;;;;6.70;2.70;;;5.20;99.90;;;;;;5049212;28;20749;-63
2022/03/20 03:01:25;;;;;;;5.68;3.13;;;5.20;99.90;;;;;;5047684;28;20032;-61
2022/03/20 03:03:53;;;;;;;6.57;2.63;;;5.20;99.90;;;;;;5049016;28;20116;-61
2022/03/20 03:06:19;;;;;;;8.50;3.72;;;5.10;99.90;;;;;;5049448;28;20036;-62
2022/03/20 03:11:29;;;;;;;5.85;2.90;;;5.10;99.90;;;;;;5047507;28;20068;-60
2022/03/20 03:13:54;;;;;;;5.72;2.30;;;5.10;99.90;;;;;;5048755;28;20049;-61
2022/03/20 03:16:20;;;;;;;8.85;3.03;;;5.10;99.90;;;;;;5049176;28;20044;-61
2022/03/20 03:18:47;;;;;;;7.22;2.90;;;5.00;99.90;;;;;;5049022;28;20106;-62
2022/03/20 03:21:15;;;;;;;7.13;2.85;;;5.00;99.90;;;;;;5045193;28;20480;-63
2022/03/20 03:23:41;;;;;;;9.07;3.50;;;5.00;99.90;;;;;;5049195;28;20040;-62
2022/03/20 03:26:07;;;;;;;7.20;3.50;;;5.00;99.90;;;;;;5048615;28;20037;-61
2022/03/20 03:28:36;;;;;;;12.82;3.72;;;5.00;99.90;;;;;;5049437;28;20029;-61
2022/03/20 03:31:08;;;;;;;11.20;3.15;;;4.90;99.90;;;;;;5048448;28;20958;-61
2022/03/20 03:33:35;;;;;;;7.75;2.78;;;4.90;99.90;;;;;;5049282;28;20040;-61
2022/03/20 03:36:01;;;;;;;7.60;3.17;;;4.90;99.90;;;;;;5048231;28;20488;-61
2022/03/20 03:38:35;;;;;;;10.25;3.03;;;4.90;99.90;;;;;;5049283;28;20040;-61
2022/03/20 03:41:01;;;;;;;7.13;3.60;;;4.90;99.90;;;;;;5048478;28;20033;-61
2022/03/20 03:43:28;;;;;;;7.82;3.47;;;4.90;99.90;;;;;;5052361;28;20041;-61
2022/03/20 03:45:53;;;;;;;9.20;4.05;;;4.90;99.90;;;;;;5051741;28;20033;-62
2022/03/20 03:48:20;;;;;;;10.77;4.50;;;4.90;99.90;;;;;;5053168;28;20043;-62
2022/03/20 03:50:47;;;;;;;7.32;3.40;;;4.90;99.90;;;;;;5052071;28;20623;-61
2022/03/20 03:53:14;;;;;;;8.90;3.75;;;4.90;99.90;;;;;;5053112;28;20101;-62
2022/03/20 03:55:43;;;;;;;6.97;3.30;;;4.90;99.90;;;;;;5048690;28;20152;-61
2022/03/20 03:58:10;;;;;;;12.77;3.80;;;4.90;99.90;;;;;;5047096;28;20036;-61
2022/03/20 04:00:35;;;;;;;9.70;3.40;;;4.80;99.90;;;;;;5052705;28;20405;-63
2022/03/20 04:03:01;;;;;;;11.45;3.72;;;4.80;99.90;;;;;;5050797;28;20036;-62
2022/03/20 04:05:28;;;;;;;10.63;3.65;;;4.80;99.90;;;;;;5052767;28;20048;-62
2022/03/20 04:07:54;;;;;;;6.65;3.13;;;4.80;99.90;;;;;;5051888;28;20396;-61
2022/03/20 04:10:20;;;;;;;10.05;3.88;;;4.90;99.90;;;;;;5052526;28;20025;-61
2022/03/20 04:12:46;;;;;;;9.00;3.90;;;4.90;99.90;;;;;;5052076;28;20036;-61
2022/03/20 04:15:14;;;;;;;10.00;4.75;;;4.80;99.90;;;;;;5052310;28;20041;-61
2022/03/20 04:17:40;;;;;;;13.60;4.45;;;4.80;99.90;;;;;;5048379;28;20033;-61
2022/03/20 04:20:07;;;;;;;10.13;4.00;;;4.70;99.90;;;;;;5051968;28;20104;-63
2022/03/20 04:22:36;;;;;;;10.77;3.80;;;4.70;99.90;;;;;;5052451;28;20033;-61
2022/03/20 04:25:04;;;;;;;14.13;4.28;;;4.70;99.90;;;;;;5051994;28;20029;-62
2022/03/20 04:27:30;;;;;;;9.93;4.18;;;4.70;99.90;;;;;;5052327;28;20025;-61
2022/03/20 04:29:56;;;;;;;10.88;4.45;;;4.70;99.90;;;;;;5050375;28;20033;-61
2022/03/20 04:32:22;;;;;;;12.82;4.72;;;4.60;99.90;;;;;;5051995;28;20036;-61
2022/03/20 04:34:48;;;;;;;9.57;4.40;;;4.70;99.90;;;;;;5051681;28;20064;-62
2022/03/20 04:37:14;;;;;;;14.95;4.63;;;4.60;99.90;;;;;;5051967;28;20111;-62
2022/03/20 04:39:40;;;;;;;14.43;3.85;;;4.60;99.90;;;;;;5050806;28;20493;-62
2022/03/20 04:42:06;;;;;;;10.50;3.67;;;4.60;99.90;;;;;;5052505;28;20090;-61
2022/03/20 04:44:32;;;;;;;13.07;3.70;;;4.60;99.90;;;;;;5052152;28;20040;-62
2022/03/20 04:46:58;;;;;;;9.73;4.30;;;4.60;99.90;;;;;;5050505;28;20041;-61
2022/03/20 05:00:21;;;;;;;12.88;4.45;;;4.50;99.90;;;;;;5049743;28;20055;-62
2022/03/20 05:02:48;;;;;;;12.82;4.97;;;4.40;99.90;;;;;;5051696;28;20033;-61
2022/03/20 05:05:14;;;;;;;9.20;4.32;;;4.40;99.90;;;;;;5051763;28;20048;-61
2022/03/20 05:07:40;;;;;;;11.48;4.35;;;4.50;99.90;;;;;;5051190;28;20021;-61
2022/03/20 05:15:36;;;;;;;14.48;4.65;;;4.50;99.90;;;;;;5051219;28;20082;-61
2022/03/20 05:18:03;;;;;;;9.18;4.22;;;4.50;99.90;;;;;;5051154;28;20527;-61
2022/03/20 05:20:29;;;;;;;13.43;4.70;;;4.50;99.90;;;;;;5051153;28;20037;-62
2022/03/20 05:22:54;;;;;;;12.27;6.00;;;4.50;99.90;;;;;;5051017;28;20017;-62
2022/03/20 05:25:20;;;;;;;17.13;4.60;;;4.40;99.90;;;;;;5051123;28;20021;-61
2022/03/20 05:27:46;;;;;;;13.40;4.93;;;4.40;99.90;;;;;;5050861;28;20369;-61
2022/03/20 05:30:12;;;;;;;12.95;4.57;;;4.40;99.90;;;;;;5051142;28;20082;-63
2022/03/20 05:32:38;;;;;;;13.85;4.63;;;4.40;99.90;;;;;;5051345;28;20022;-62
2022/03/20 05:35:06;;;;;;;11.38;4.45;;;4.40;99.90;;;;;;5046733;28;20033;-61
2022/03/20 05:37:32;;;;;;;16.60;5.30;;;4.40;99.90;;;;;;5051076;28;20036;-61
2022/03/20 05:39:58;;;;;;;8.80;3.90;;;4.50;99.90;;;;;;5050232;28;20037;-61
2022/03/20 05:42:24;;;;;;;11.45;5.80;;;4.50;99.90;;;;;;5051961;28;20076;-62
2022/03/20 05:44:50;;;;;;;12.77;5.30;;;4.60;99.90;;;;;;5050712;28;20122;-62
2022/03/20 05:47:16;;;;;;;12.32;5.45;;;4.60;99.90;;;;;;5050929;28;20033;-62
2022/03/20 05:49:42;;;;;;;15.48;4.82;;;4.60;99.90;;;;;;5051244;28;20025;-62
2022/03/20 05:52:08;;;;;;;13.23;4.70;;;4.60;99.90;;;;;;5050459;28;20033;-62
2022/03/20 05:54:34;;;;;;;9.65;5.22;;;4.70;99.90;;;;;;5050728;28;20047;-62
2022/03/20 05:59:44;;;;;;;12.90;4.88;;;4.70;99.90;;;;;;5048304;28;20028;-62
2022/03/20 06:02:11;;;;;;;17.38;5.30;;;4.80;99.90;;;;;;5050796;28;20041;-62
2022/03/20 06:04:38;;;;;;;13.30;5.70;;;4.80;99.90;;;;;;5050722;28;20110;-62
2022/03/20 06:07:05;;;;;;;16.00;5.65;;;4.80;99.90;;;;;;5047509;28;20036;-62
2022/03/20 06:09:30;;;;;;;9.60;4.13;;;4.80;99.90;;;;;;5050533;28;20391;-61
2022/03/20 06:11:56;;;;;;;14.45;5.13;;;4.80;99.90;;;;;;5048552;28;20047;-62
2022/03/20 06:14:22;;;;;;;12.68;4.78;;;4.90;99.90;;;;;;5042722;28;20107;-63
2022/03/20 06:16:48;;;;;;;9.48;4.65;;;4.90;99.90;;;;;;5050947;28;20483;-64
2022/03/20 06:19:16;;;;;;;30.48;6.90;;;4.90;99.90;;;;;;5051227;28;20053;-62
2022/03/20 06:21:42;;;;;;;12.38;5.07;;;4.90;99.90;;;;;;5050208;28;20036;-61
2022/03/20 06:24:08;;;;;;;10.45;4.88;;;5.00;99.90;;;;;;5050104;28;20064;-63
2022/03/20 06:26:35;;;;;;;11.48;4.85;;;5.00;99.90;;;;;;5050851;28;20033;-62
2022/03/20 06:29:02;;;;;;;16.58;5.18;;;5.00;99.90;;;;;;5049908;28;20040;-61
2022/03/20 06:31:27;;;;;;;10.20;4.63;;;5.00;99.90;;;;;;5048665;28;20382;-61
2022/03/20 06:33:54;;;;;;;11.35;4.85;;;5.00;99.90;;;;;;5048494;28;20083;-61
2022/03/20 06:36:20;;;;;;;11.82;5.13;;;5.00;99.90;;;;;;5050400;28;20036;-61
2022/03/20 06:38:45;;;;;;;12.88;4.68;;;5.00;99.90;;;;;;5049665;28;20553;-62
2022/03/20 06:41:11;;;;;;;10.05;4.65;;;5.00;99.90;;;;;;5050047;28;20047;-62
2022/03/20 06:43:37;;;;;;;13.10;5.38;;;4.90;99.90;;;;;;5050284;28;20088;-61
2022/03/20 06:46:04;;;;;;;10.57;4.68;;;5.00;99.90;;;;;;5049826;28;20041;-61
2022/03/20 06:48:30;;;;;;;14.18;5.65;;;5.00;99.90;;;;;;5046100;28;20078;-60
2022/03/20 06:50:57;;;;;;;13.18;5.07;;;5.10;99.90;;;;;;5049678;28;20075;-60
2022/03/20 06:53:22;;;;;;;11.50;5.03;;;5.00;99.90;;;;;;5049994;28;20025;-61
2022/03/20 06:55:51;;;;;;;15.00;5.80;;;5.00;99.90;;;;;;5049425;28;20079;-61
2022/03/20 06:58:17;;;;;;;20.42;5.40;;;5.10;99.90;;;;;;5049619;28;20025;-61
2022/03/20 07:00:46;;;;;;;13.93;5.43;;;5.10;99.90;;;;;;5049174;28;20041;-64
2022/03/20 07:03:11;;;;;;;14.63;5.78;;;5.20;99.90;;;;;;5050330;28;20413;-60
2022/03/20 07:05:37;;;;;;;15.15;5.15;;;5.20;99.90;;;;;;5049886;28;20037;-60
2022/03/20 07:08:04;;;;;;;11.07;5.10;;;5.20;99.90;;;;;;5049138;28;20119;-61
2022/03/20 07:10:30;;;;;;;10.27;4.32;;;5.40;99.90;;;;;;5045779;28;20106;-60
2022/03/20 07:15:42;;;;;;;12.25;4.88;;;5.60;99.90;;;;;;5047287;28;20044;-60
2022/03/20 07:18:09;;;;;;;12.82;5.65;;;5.70;99.90;;;;;;5049127;28;20504;-60
2022/03/20 07:20:36;;;;;;;11.13;5.45;;;5.80;99.90;;;;;;5049481;28;20072;-61
2022/03/20 07:23:02;;;;;;;10.73;5.07;;;5.80;99.90;;;;;;5047725;28;20039;-61
2022/03/20 07:30:56;;;;;;;13.27;5.38;;;5.90;99.90;;;;;;5046853;28;20091;-61
2022/03/20 07:33:23;;;;;;;12.52;5.38;;;6.00;99.90;;;;;;5047216;28;20044;-61
2022/03/20 07:35:49;;;;;;;11.15;5.45;;;6.00;99.90;;;;;;5045679;28;20037;-60
2022/03/20 07:38:15;;;;;;;11.77;4.90;;;6.10;99.90;;;;;;5045864;28;20048;-60
2022/03/20 07:40:41;;;;;;;13.55;5.30;;;6.20;99.90;;;;;;5043745;28;20044;-60
2022/03/20 07:43:07;;;;;;;16.50;5.40;;;6.30;99.90;;;;;;5050909;28;20473;-60
2022/03/20 07:45:32;;;;;;;16.15;5.72;;;6.30;99.90;;;;;;5046157;28;20623;-61
2022/03/20 07:47:58;;;;;;;12.40;5.25;;;6.40;99.90;;;;;;5047446;28;20091;-60
2022/03/20 07:50:24;;;;;;;15.05;6.07;;;6.50;99.90;;;;;;5047226;28;20102;-60
2022/03/20 07:52:50;;;;;;;20.45;5.85;;;6.50;99.90;;;;;;5047562;28;20030;-62
2022/03/20 07:55:17;;;;;;;12.32;5.25;;;6.50;99.90;;;;;;5046108;28;20382;-61
2022/03/20 07:57:43;;;;;;;11.45;5.10;;;6.70;99.90;;;;;;5045359;28;20111;-61
2022/03/20 08:00:09;;;;;;;15.85;6.13;;;6.70;99.50;;;;;;5048688;28;20029;-61
2022/03/20 08:02:36;;;;;;;16.38;6.03;;;6.70;99.30;;;;;;5046653;28;20048;-61
2022/03/20 08:05:01;;;;;;;10.32;5.10;;;6.70;99.50;;;;;;5048533;28;20044;-62
2022/03/20 08:07:27;;;;;;;14.35;6.25;;;6.70;98.60;;;;;;5048950;28;20029;-61
2022/03/20 08:09:52;;;;;;;14.07;5.55;;;6.60;98.60;;;;;;5048423;28;20082;-62
2022/03/20 08:12:18;;;;;;;17.05;6.63;;;6.50;98.80;;;;;;5044816;28;20047;-62
2022/03/20 08:14:44;;;;;;;15.60;5.13;;;6.50;98.70;;;;;;5047755;28;20114;-62
2022/03/20 08:17:10;;;;;;;14.73;6.10;;;6.70;99.30;;;;;;5048100;28;20041;-61
2022/03/20 08:19:35;;;;;;;15.82;5.65;;;6.80;98.00;;;;;;5048372;28;20113;-62
2022/03/20 08:22:05;;;;;;;16.55;6.03;;;6.80;98.00;;;;;;5046927;28;20044;-62
2022/03/20 08:24:31;;;;;;;12.43;6.15;;;6.90;98.30;;;;;;5048065;28;20071;-61
2022/03/20 08:26:57;;;;;;;14.48;5.75;;;6.90;97.70;;;;;;5046990;28;20112;-62
2022/03/20 08:29:23;;;;;;;13.02;5.82;;;6.90;97.10;;;;;;5047878;28;20102;-61
2022/03/20 08:31:49;;;;;;;15.20;6.55;;;6.90;97.10;;;;;;5050432;28;20509;-62
2022/03/20 08:34:16;;;;;;;15.77;6.03;;;7.10;96.30;;;;;;5051573;28;20029;-60
2022/03/20 08:36:42;;;;;;;14.52;6.15;;;7.30;96.20;;;;;;5051183;28;20059;-61
2022/03/20 08:39:08;;;;;;;12.80;5.97;;;7.30;95.40;;;;;;5050298;28;20041;-62
2022/03/20 08:41:34;;;;;;;13.68;6.90;;;7.30;95.00;;;;;;5050636;28;20554;-62
2022/03/20 08:44:01;;;;;;;17.92;6.65;;;7.40;94.60;;;;;;5054058;28;20130;-61
2022/03/20 08:46:27;;;;;;;13.15;6.20;;;7.40;94.80;;;;;;5051370;28;20095;-62
2022/03/20 08:48:52;;;;;;;14.48;6.72;;;7.60;94.30;;;;;;5046999;28;20374;-63
2022/03/20 08:51:18;;;;;;;13.65;5.65;;;7.70;94.00;;;;;;5050419;28;20056;-62
2022/03/20 08:53:44;;;;;;;13.32;6.35;;;7.80;92.80;;;;;;5050936;28;20036;-64
2022/03/20 08:56:09;;;;;;;16.90;6.40;;;7.80;93.10;;;;;;5049484;28;20037;-62
2022/03/20 08:58:35;;;;;;;18.70;6.47;;;7.80;93.20;;;;;;5051532;28;20032;-61
2022/03/20 09:01:01;;;;;;;15.48;6.25;;;7.70;92.90;;;;;;5050335;28;20128;-63
2022/03/20 09:03:26;;;;;;;14.98;6.63;;;7.60;92.80;;;;;;5051156;28;20052;-61
2022/03/20 09:05:52;;;;;;;15.73;6.78;;;7.60;93.10;;;;;;5045976;28;20048;-62
2022/03/20 09:08:18;;;;;;;13.43;6.05;;;7.70;92.80;;;;;;5050966;28;20025;-63
2022/03/20 09:10:44;;;;;;;14.77;6.20;;;7.60;92.10;;;;;;5048644;28;20690;-63
2022/03/20 09:13:09;;;;;;;15.35;6.85;;;7.60;92.10;;;;;;5049232;28;20136;-62
2022/03/20 09:15:35;;;;;;;15.70;6.72;;;7.50;92.50;;;;;;5050524;28;20036;-61
2022/03/20 09:20:45;;;;;;;15.88;6.40;;;7.50;91.90;;;;;;5049784;28;20172;-64
2022/03/20 09:23:12;;;;;;;16.90;6.78;;;7.30;92.00;;;;;;5050462;28;20499;-62
2022/03/20 09:25:39;;;;;;;15.05;6.50;;;7.30;92.30;;;;;;5050408;28;20358;-61
2022/03/20 09:28:06;;;;;;;22.80;7.95;;;7.20;92.80;;;;;;5050028;28;20032;-62
2022/03/20 09:30:33;;;;;;;13.85;6.00;;;7.30;92.70;;;;;;5050728;28;20477;-61
2022/03/20 09:33:01;;;;;;;18.75;7.15;;;7.50;92.20;;;;;;5049375;28;20044;-62
2022/03/20 09:35:26;;;;;;;15.43;6.65;;;7.50;92.30;;;;;;5051047;28;20074;-61
2022/03/20 09:37:52;;;;;;;18.10;7.05;;;7.50;91.80;;;;;;5051017;28;20494;-61
2022/03/20 09:40:22;;;;;;;21.52;7.32;;;7.40;91.50;;;;;;5051019;28;20029;-63
2022/03/20 09:42:47;;;;;;;18.92;6.82;;;7.40;91.90;;;;;;5053671;28;20040;-63
2022/03/20 09:45:17;;;;;;;20.45;7.05;;;7.30;92.10;;;;;;5051246;28;20033;-62
2022/03/20 09:47:43;;;;;;;14.60;6.20;;;7.20;91.90;;;;;;5050599;28;20032;-63
2022/03/20 09:50:10;;;;;;;18.00;7.90;;;7.20;91.90;;;;;;5050460;28;20104;-62
2022/03/20 09:52:36;;;;;;;16.48;6.13;;;7.20;91.80;;;;;;5051043;28;20025;-61
2022/03/20 09:55:05;;;;;;;15.43;6.55;;;7.30;91.10;;;;;;5049254;28;20120;-61
2022/03/20 09:57:30;;;;;;;16.95;6.57;;;7.30;91.30;;;;;;5050238;28;20025;-61
2022/03/20 09:59:57;;;;;;;15.45;6.88;;;7.20;91.40;;;;;;5050020;28;20043;-62
2022/03/20 10:02:28;;;;;;;15.35;6.30;;;7.30;91.40;;;;;;5050896;28;20750;-62
2022/03/20 10:04:57;;;;;;;15.88;6.75;;;7.40;91.50;;;;;;5043911;28;20044;-61
2022/03/20 10:07:24;;;;;;;19.13;6.05;;;7.50;91.20;;;;;;5048795;28;20028;-62
2022/03/20 10:10:07;;;;;;;15.02;7.13;;;7.50;90.90;;;;;;5046865;28;20082;-61
2022/03/20 10:12:34;;;;;;;14.82;7.18;;;7.60;90.80;;;;;;5050342;28;20060;-62
2022/03/20 10:15:00;;;;;;;16.52;7.78;;;7.70;90.60;;;;;;5050392;28;20533;-61
2022/03/20 10:17:25;;;;;;;19.02;7.55;;;7.70;90.30;;;;;;5050306;28;20064;-63
2022/03/20 10:19:51;;;;;;;15.10;6.97;;;7.90;90.00;;;;;;5047942;28;20025;-61
2022/03/20 10:22:17;;;;;;;18.92;6.97;;;8.10;89.50;;;;;;5049839;28;20051;-61
2022/03/20 10:24:49;;;;;;;16.27;6.75;;;8.40;90.90;;;;;;5049482;28;20375;-62
2022/03/20 10:27:15;;;;;;;19.05;6.13;;;8.60;89.10;;;;;;5048695;28;20059;-62
2022/03/20 10:29:52;;;;;;;15.60;6.88;;;8.70;86.90;;;;;;5049778;28;20049;-62
2022/03/20 10:32:18;;;;;;;17.63;7.72;;;8.80;87.90;;;;;;5045855;28;20048;-62
2022/03/20 10:34:57;;;;;;;23.85;8.55;;;8.80;85.60;;;;;;5049597;28;20090;-65
2022/03/20 10:37:47;;;;;;;17.02;7.63;;;8.80;86.40;;;;;;5046710;28;20411;-62
2022/03/20 10:40:27;;;;;;;17.35;6.90;;;8.80;86.70;;;;;;5049673;28;20025;-62
2022/03/20 10:43:16;;;;;;;18.05;8.43;;;8.80;84.80;;;;;;5049300;28;20060;-62
2022/03/20 10:46:00;;;;;;;21.35;7.32;;;8.80;85.30;;;;;;5049875;28;20037;-62
2022/03/20 10:48:39;;;;;;;19.58;8.05;;;8.80;84.70;;;;;;5047024;28;20026;-61
2022/03/20 10:51:07;;;;;;;17.75;7.72;;;8.70;85.20;;;;;;5049364;28;20029;-62
2022/03/20 10:53:33;;;;;;;21.00;8.10;;;8.50;85.40;;;;;;5049137;28;20021;-62
2022/03/20 10:56:07;;;;;;;16.10;7.50;;;8.30;85.90;;;;;;5048949;28;20061;-61
2022/03/20 10:58:37;;;;;;;20.42;7.25;;;8.20;86.10;;;;;;5049778;28;20132;-63
2022/03/20 11:01:05;;;;;;;15.80;7.03;;;8.10;87.10;;;;;;5048821;28;20029;-63
2022/03/20 11:03:33;;;;;;;19.23;8.13;;;8.00;86.90;;;;;;5049377;28;20055;-61
2022/03/20 11:05:59;;;;;;;21.38;8.18;;;7.90;87.50;;;;;;5049158;28;20036;-62
2022/03/20 11:08:26;;;;;;;16.02;7.05;;;7.80;88.40;;;;;;5049356;28;20029;-62
2022/03/20 11:10:53;;;;;;;17.70;7.63;;;7.70;90.00;;;;;;5048788;28;20119;-61
2022/03/20 11:13:21;;;;;;;18.20;8.52;;;7.70;89.90;;;;;;5049366;28;20493;-62
2022/03/20 11:15:48;;;;;;;21.60;9.20;;;7.50;98.60;;;;;;5045289;28;20665;-61
2022/03/20 11:18:15;;;;;;;27.38;9.52;;;7.00;99.90;;;;;;5049143;28;20052;-63
2022/03/20 11:20:45;;;;;;;23.10;10.50;;;6.60;99.90;;;;;;5049323;28;20120;-61
2022/03/20 11:23:14;;;;;;;22.90;10.20;;;6.20;99.90;;;;;;5049315;28;20110;-61
2022/03/20 11:25:42;;;;;;;24.48;10.50;;;5.90;99.90;;;;;;5049672;28;20022;-62
2022/03/20 11:28:10;;;;;;;25.42;10.68;;;5.70;99.90;;;;;;5048913;28;20033;-62
2022/03/20 11:30:36;;;;;;;27.58;10.63;;;5.50;99.90;;;;;;5049048;28;20025;-62
2022/03/20 11:33:03;;;;;;;24.30;10.15;;;5.30;99.90;;;;;;5048687;28;20107;-62
2022/03/20 11:35:32;;;;;;;22.67;10.05;;;5.30;99.90;;;;;;5048908;28;20025;-62
2022/03/20 11:38:16;;;;;;;22.48;10.25;;;5.40;99.90;;;;;;5048737;28;20041;-62
2022/03/20 11:41:23;;;;;;;26.05;10.60;;;5.50;99.90;;;;;;5047880;28;20033;-61
2022/03/20 11:44:10;;;;;;;23.50;10.27;;;5.60;99.90;;;;;;5049437;28;20029;-62
2022/03/20 11:46:36;;;;;;;22.27;10.40;;;5.80;99.90;;;;;;5049121;28;20112;-61
2022/03/20 11:49:15;;;;;;;25.20;10.70;;;5.90;99.90;;;;;;5042447;28;20051;-62
2022/03/20 11:51:58;;;;;;;29.02;11.27;;;6.10;99.90;;;;;;5046024;28;20439;-62
2022/03/20 11:54:31;;;;;;;24.52;11.05;;;6.20;99.90;;;;;;5046323;28;20120;-61
2022/03/20 11:56:58;;;;;;;23.67;10.35;;;6.50;99.90;;;;;;5047209;28;20044;-60
2022/03/20 11:59:47;;;;;;;24.70;11.38;;;6.70;99.90;;;;;;5046909;28;20025;-62
2022/03/20 12:02:18;;;;;;;24.73;10.73;;;6.80;99.90;;;;;;5040812;28;20041;-61
2022/03/20 12:05:03;;;;;;;26.73;11.02;;;6.80;99.90;;;;;;5044480;28;20033;-61
2022/03/20 12:07:55;;;;;;;24.88;10.73;;;6.90;99.90;;;;;;5049346;28;20112;-63
2022/03/20 12:10:47;;;;;;;22.05;10.32;;;6.90;99.90;;;;;;5048603;28;20033;-61
2022/03/20 12:13:25;;;;;;;20.27;9.43;;;6.90;99.90;;;;;;5045400;28;20107;-62
2022/03/20 12:15:50;;;;;;;20.52;10.48;;;6.90;99.90;;;;;;5048481;28;20438;-62
2022/03/20 12:18:16;;;;;;;25.48;11.00;;;6.90;99.90;;;;;;5047587;28;20025;-61
2022/03/20 12:21:02;;;;;;;25.40;10.57;;;6.90;99.90;;;;;;5050312;28;20059;-61
2022/03/20 12:23:43;;;;;;;23.40;11.15;;;6.90;99.90;;;;;;5047937;28;20036;-61
2022/03/20 12:26:24;;;;;;;21.65;10.45;;;6.90;99.90;;;;;;5050625;28;20029;-62
2022/03/20 12:28:49;;;;;;;23.90;9.65;;;7.00;99.90;;;;;;5051216;28;20037;-62
2022/03/20 12:31:27;;;;;;;21.40;10.07;;;7.10;99.90;;;;;;5051491;28;20017;-61
2022/03/20 12:34:18;;;;;;;20.70;9.38;;;7.10;99.90;;;;;;5050703;28;20095;-61
2022/03/20 12:36:43;;;;;;;20.60;10.18;;;7.10;99.90;;;;;;5047915;28;20033;-61
2022/03/20 12:39:10;;;;;;;22.63;9.93;;;7.10;99.90;;;;;;5051215;28;20039;-62
2022/03/20 12:41:37;;;;;;;24.17;10.35;;;7.30;99.90;;;;;;5051807;28;20033;-62
2022/03/20 12:44:07;;;;;;;25.02;10.95;;;7.40;99.90;;;;;;5051277;28;20042;-68
2022/03/20 12:46:37;;;;;;;25.80;11.18;;;7.50;99.90;;;;;;5052203;28;20393;-62
2022/03/20 12:49:03;;;;;;;24.88;10.75;;;7.60;99.90;;;;;;5051866;28;20052;-61
2022/03/20 12:51:36;;;;;;;29.38;11.38;;;7.80;99.90;;;;;;5050633;28;20079;-61
2022/03/20 12:54:15;;;;;;;26.85;11.23;;;7.90;99.90;;;;;;5051572;28;20143;-61
2022/03/20 12:56:55;;;;;;;20.20;9.57;;;8.10;99.90;;;;;;5047507;28;20033;-61
2022/03/20 12:59:25;;;;;;;25.67;10.88;;;8.30;99.90;;;;;;5049256;28;20044;-62
2022/03/20 13:01:50;;;;;;;26.30;10.23;;;8.60;99.90;;;;;;5051306;28;20064;-62
2022/03/20 13:04:20;;;;;;;24.80;10.73;;;8.60;99.90;;;;;;5051965;28;20516;-61
2022/03/20 13:06:46;;;;;;;23.55;9.77;;;8.60;99.90;;;;;;5051612;28;20063;-62
2022/03/20 13:09:14;;;;;;;23.67;10.93;;;8.70;99.90;;;;;;5048752;28;20112;-62
2022/03/20 13:11:48;;;;;;;25.73;11.35;;;8.70;99.90;;;;;;5047014;28;20112;-61
2022/03/20 13:14:15;;;;;;;23.80;10.85;;;8.70;99.90;;;;;;5046892;28;20068;-61
2022/03/20 13:16:53;;;;;;;21.90;9.98;;;8.80;99.90;;;;;;5050141;28;20033;-62
2022/03/20 13:19:37;;;;;;;20.08;9.98;;;8.90;99.90;;;;;;5047714;28;20033;-61
2022/03/20 13:22:08;;;;;;;23.23;10.57;;;9.00;99.90;;;;;;5046999;28;20052;-62
2022/03/20 13:24:36;;;;;;;21.65;10.77;;;9.00;99.90;;;;;;5050368;28;20032;-61